Time;durP1;ratioP1;P1;durP2;ratioP2;P2;SDS_P1;SDS_P2;PMS_P1;PMS_P2;Temp;Humidity;BMP_temperature;BMP_pressure;BME280_temperature;BME280_humidity;BME280_pressure;Samples;Min_cycle;Max_cycle;Signal;HPM_P1;HPM_P2
2022/01/26 00:00:06;;;;;;;11.38;6.20;;;;;;;3.53;77.84;103490.09;4993831;28;97209;-36
2022/01/26 00:07:59;;;;;;;17.38;7.95;;;;;;;3.51;78.10;103493.66;4995549;28;96539;-36
2022/01/26 00:10:24;;;;;;;18.45;6.72;;;;;;;3.52;78.29;103490.06;4994478;28;97739;-36
2022/01/26 00:12:50;;;;;;;21.58;7.72;;;;;;;3.42;77.99;103475.69;4994554;28;98070;-36
2022/01/26 00:15:15;;;;;;;16.00;7.80;;;;;;;3.46;77.85;103482.00;4999668;28;96745;-36
2022/01/26 00:17:41;;;;;;;20.50;9.40;;;;;;;3.53;77.95;103495.47;4999979;28;96971;-36
2022/01/26 00:20:47;;;;;;;16.73;6.22;;;;;;;3.53;78.02;103494.56;4999932;28;97780;-36
2022/01/26 00:23:32;;;;;;;;;;;;;;;3.57;78.33;103493.69;5000921;28;98601;-36
2022/01/26 00:26:17;;;;;;;12.48;3.75;;;;;;;3.55;78.41;103493.72;5000729;28;96883;-36
2022/01/26 00:40:05;;;;;;;13.77;6.00;;;;;;;3.52;77.86;103485.59;5001351;28;96448;-36
2022/01/26 00:42:36;;;;;;;17.13;7.87;;;;;;;3.39;78.36;103459.59;5000446;28;97921;-36
2022/01/26 00:45:03;;;;;;;17.35;5.65;;;;;;;3.43;78.14;103464.06;5000845;28;97782;-36
2022/01/26 00:47:28;;;;;;;16.67;6.95;;;;;;;3.48;78.19;103475.75;4999573;28;96548;-36
2022/01/26 00:49:59;;;;;;;20.98;7.57;;;;;;;3.32;77.96;103447.00;5001076;28;96862;-36
2022/01/26 00:52:42;;;;;;;13.15;6.72;;;;;;;3.33;77.53;103459.50;5000741;28;98465;-36
2022/01/26 00:55:11;;;;;;;15.05;7.07;;;;;;;3.29;78.00;103453.25;4999281;28;100770;-36
2022/01/26 00:57:36;;;;;;;18.52;8.02;;;;;;;3.34;78.44;103472.94;4999094;28;96776;-36
2022/01/26 01:00:08;;;;;;;26.17;11.73;;;;;;;3.32;78.27;103463.97;5001361;28;96743;-36
2022/01/26 01:02:33;;;;;;;;;;;;;;;3.32;78.10;103477.38;4998728;28;100967;-36
2022/01/26 01:05:03;;;;;;;8.02;3.70;;;;;;;3.16;78.05;103438.78;5000592;28;97892;-36
2022/01/26 01:07:33;;;;;;;14.73;6.80;;;;;;;3.30;78.13;103463.06;4998705;28;96869;-36
2022/01/26 01:09:59;;;;;;;19.15;9.45;;;;;;;3.23;78.31;103441.56;5000661;28;96629;-36
2022/01/26 01:12:24;;;;;;;12.55;6.85;;;;;;;3.31;78.66;103454.16;5000458;28;98106;-36
2022/01/26 01:14:50;;;;;;;17.67;8.60;;;;;;;3.28;78.55;103451.44;5000425;28;97635;-36
2022/01/26 01:17:23;;;;;;;21.83;9.10;;;;;;;3.23;78.83;103450.47;5000429;28;96564;-36
2022/01/26 01:20:08;;;;;;;17.75;7.50;;;;;;;3.02;78.40;103410.97;5000786;28;96478;-37
2022/01/26 01:30:39;;;;;;;17.52;8.75;;;;;;;3.21;78.09;103432.59;4997092;28;96615;-36
2022/01/26 01:33:09;;;;;;;10.63;6.13;;;;;;;3.07;78.76;103417.25;4994996;28;101546;-36
2022/01/26 01:35:38;;;;;;;12.57;6.32;;;;;;;3.11;78.58;103420.88;4995428;28;101026;-36
2022/01/26 01:38:10;;;;;;;12.43;5.72;;;;;;;3.07;78.43;103409.22;4995677;28;96710;-36
2022/01/26 01:40:37;;;;;;;11.40;6.40;;;;;;;3.02;78.49;103399.38;4997266;28;96640;-37
2022/01/26 01:43:04;;;;;;;21.92;9.80;;;;;;;2.90;78.28;103386.75;4995380;28;100712;-36
2022/01/26 01:45:36;;;;;;;21.50;8.55;;;;;;;3.20;78.54;103431.72;4995135;28;101014;-36
2022/01/26 01:48:02;;;;;;;16.40;7.07;;;;;;;3.21;78.40;103429.91;4995618;28;96516;-36
2022/01/26 01:50:28;;;;;;;8.73;5.15;;;;;;;3.18;78.19;103425.44;4995743;28;97012;-36
2022/01/26 01:53:01;;;;;;;16.55;7.45;;;;;;;3.19;78.57;103430.81;4996661;28;97881;-36
2022/01/26 01:55:28;;;;;;;10.43;4.80;;;;;;;3.11;78.59;103407.50;4996447;28;97973;-36
2022/01/26 01:57:56;;;;;;;20.70;8.70;;;;;;;3.04;79.07;103385.13;4994719;28;96512;-36
2022/01/26 02:00:21;;;;;;;18.40;8.43;;;;;;;2.93;78.41;103371.63;4995241;28;96803;-36
2022/01/26 02:02:46;;;;;;;19.85;6.28;;;;;;;2.94;79.09;103365.38;4995692;28;99440;-36
2022/01/26 02:05:12;;;;;;;15.25;6.82;;;;;;;2.98;78.40;103379.72;4996126;28;96825;-36
2022/01/26 02:07:37;;;;;;;15.15;6.65;;;;;;;3.08;79.07;103391.41;4996693;28;96565;-36
2022/01/26 02:10:03;;;;;;;14.75;8.15;;;;;;;3.08;78.71;103386.94;4996704;28;96478;-36
2022/01/26 02:12:30;;;;;;;14.60;7.28;;;;;;;3.06;78.96;103387.81;4994801;28;102153;-36
2022/01/26 02:15:05;;;;;;;15.95;7.95;;;;;;;3.00;78.74;103371.69;4995168;28;100934;-36
2022/01/26 02:50:54;;;;;;;21.20;7.78;;;;;;;3.08;79.17;103380.72;4996033;28;96521;-36
2022/01/26 02:56:05;;;;;;;22.48;6.63;;;;;;;3.04;79.23;103385.13;4995743;28;97055;-36
2022/01/26 03:01:27;;;;;;;23.65;9.02;;;;;;;3.07;79.36;103387.81;4995702;28;97717;-36
2022/01/26 03:06:28;;;;;;;21.10;9.30;;;;;;;3.03;79.26;103374.38;4995113;28;97397;-36
2022/01/26 03:09:00;;;;;;;22.25;7.82;;;;;;;2.94;79.46;103352.00;4995887;28;97781;-36
2022/01/26 03:11:28;;;;;;;21.60;7.38;;;;;;;2.97;79.70;103354.69;4994469;28;96838;-36
2022/01/26 03:14:03;;;;;;;17.10;7.07;;;;;;;2.96;79.47;103344.00;4995951;28;96734;-36
2022/01/26 03:16:43;;;;;;;23.20;10.52;;;;;;;2.93;80.03;103354.63;4993523;28;99371;-36
2022/01/26 03:19:23;;;;;;;11.13;5.65;;;;;;;2.81;79.95;103319.72;4995259;28;97775;-36
2022/01/26 03:22:17;;;;;;;14.30;6.95;;;;;;;2.93;79.83;103325.19;4994239;28;96664;-36
2022/01/26 03:30:09;;;;;;;24.13;7.68;;;;;;;2.93;80.25;103323.44;4995114;28;97690;-36
2022/01/26 03:35:29;;;;;;;18.52;7.97;;;;;;;2.94;79.91;103332.38;4995776;28;96450;-36
2022/01/26 03:37:56;;;;;;;18.50;8.35;;;;;;;2.83;79.92;103316.19;4995177;28;97888;-36
2022/01/26 03:40:35;;;;;;;13.07;6.72;;;;;;;2.97;79.84;103335.06;4994908;28;97925;-36
2022/01/26 03:43:00;;;;;;;15.15;6.97;;;;;;;2.75;80.00;103300.03;4995020;28;96709;-36
2022/01/26 03:45:27;;;;;;;18.77;6.70;;;;;;;2.98;80.48;103343.13;4995325;28;96754;-36
2022/01/26 03:47:54;;;;;;;16.13;6.82;;;;;;;2.93;80.31;103322.50;4993047;28;101422;-36
2022/01/26 03:50:20;;;;;;;23.52;9.25;;;;;;;2.88;80.14;103314.44;4994211;28;97235;-36
2022/01/26 03:52:45;;;;;;;22.23;10.57;;;;;;;2.84;80.80;103317.09;4995069;28;96679;-36
2022/01/26 03:55:10;;;;;;;23.73;9.85;;;;;;;2.87;80.11;103327.81;4995129;28;96756;-36
2022/01/26 03:57:36;;;;;;;20.50;8.50;;;;;;;2.90;80.22;103327.84;4993230;28;129108;-36
2022/01/26 04:00:01;;;;;;;18.70;9.25;;;;;;;2.81;80.43;103320.59;4994090;28;126445;-36
2022/01/26 04:02:27;;;;;;;12.73;5.55;;;;;;;2.84;80.49;103315.31;4994352;28;96707;-36
2022/01/26 04:04:58;;;;;;;12.35;6.28;;;;;;;2.97;80.38;103373.44;4994653;28;96783;-36
2022/01/26 04:07:23;;;;;;;20.33;8.53;;;;;;;2.98;80.45;103375.25;4994229;28;97988;-36
2022/01/26 04:09:49;;;;;;;20.67;7.07;;;;;;;3.01;80.99;103377.06;4994670;28;97788;-36
2022/01/26 04:12:14;;;;;;;23.77;8.77;;;;;;;2.95;80.48;103363.59;4993241;28;97788;-36
2022/01/26 04:14:42;;;;;;;32.45;10.07;;;;;;;2.88;80.71;103349.22;4994787;28;96770;-36
2022/01/26 04:17:08;;;;;;;11.35;5.90;;;;;;;3.02;81.24;103383.31;4992940;28;101118;-36
2022/01/26 04:19:36;;;;;;;18.10;6.57;;;;;;;2.96;81.57;103358.25;4994488;28;98377;-36
2022/01/26 04:22:13;;;;;;;14.10;6.32;;;;;;;3.04;81.21;103373.50;4993246;28;97068;-36
2022/01/26 04:24:44;;;;;;;13.25;7.38;;;;;;;2.94;80.96;103361.81;4993676;28;96815;-36
2022/01/26 04:27:36;;;;;;;12.90;5.13;;;;;;;3.09;81.36;103375.34;4992809;28;100960;-36
2022/01/26 04:30:01;;;;;;;8.37;3.93;;;;;;;3.11;81.47;103391.44;4994277;28;97748;-36
2022/01/26 04:32:27;;;;;;;26.88;10.82;;;;;;;3.11;81.09;103399.47;4994091;28;96557;-36
2022/01/26 04:34:52;;;;;;;17.35;7.70;;;;;;;2.96;81.66;103365.41;4994553;28;96696;-36
2022/01/26 04:39:50;;;;;;;17.30;6.78;;;;;;;2.95;82.20;103350.19;4994214;28;98037;-36
2022/01/26 04:42:24;;;;;;;17.17;7.05;;;;;;;2.95;82.37;103323.44;4994739;28;96454;-36
2022/01/26 04:44:59;;;;;;;21.33;10.00;;;;;;;3.08;81.74;103351.25;4994606;28;96471;-36
2022/01/26 04:47:25;;;;;;;21.27;8.18;;;;;;;3.10;81.84;103346.78;4993900;28;99336;-36
2022/01/26 04:49:50;;;;;;;11.77;5.72;;;;;;;3.09;82.52;103326.25;4993689;28;117667;-36
2022/01/26 04:52:15;;;;;;;18.05;8.25;;;;;;;2.98;84.11;103310.09;4994341;28;96611;-36
2022/01/26 04:54:41;;;;;;;18.38;8.73;;;;;;;2.96;82.12;103309.19;4994527;28;96814;-36
2022/01/26 04:57:06;;;;;;;15.70;7.78;;;;;;;3.02;81.96;103325.28;4993862;28;97400;-36
2022/01/26 04:59:31;;;;;;;22.60;9.30;;;;;;;3.00;82.17;103323.47;4993277;28;111747;-36
2022/01/26 05:01:56;;;;;;;21.75;8.30;;;;;;;2.98;81.93;103315.47;4996003;28;96780;-36
2022/01/26 05:04:22;;;;;;;15.85;5.68;;;;;;;3.04;82.62;103318.19;4995884;28;96896;-36
2022/01/26 05:06:56;;;;;;;16.00;4.97;;;;;;;3.16;82.11;103341.50;4997280;28;97969;-36
2022/01/26 05:09:22;;;;;;;15.90;7.25;;;;;;;3.09;82.50;103328.94;4995224;28;126054;-36
2022/01/26 05:11:50;;;;;;;24.33;9.27;;;;;;;3.08;81.96;103316.44;4997569;28;96443;-36
2022/01/26 05:14:16;;;;;;;19.10;8.00;;;;;;;3.24;81.83;103337.09;4996366;28;96891;-36
2022/01/26 05:16:41;;;;;;;18.13;8.32;;;;;;;3.23;82.70;103338.00;4997325;28;97927;-36
2022/01/26 05:19:07;;;;;;;20.10;7.13;;;;;;;3.24;82.53;103330.84;4997052;28;97752;-36
2022/01/26 05:21:32;;;;;;;18.08;6.95;;;;;;;3.12;82.81;103302.19;4996894;28;96595;-36
2022/01/26 05:23:58;;;;;;;12.35;5.68;;;;;;;3.12;82.41;103296.81;4997556;28;96756;-36
2022/01/26 05:26:23;;;;;;;20.27;8.27;;;;;;;3.21;82.63;103296.91;4997130;28;97239;-36
2022/01/26 05:28:49;;;;;;;12.20;6.15;;;;;;;3.17;82.21;103290.66;4996924;28;97577;-36
2022/01/26 05:31:15;;;;;;;19.65;6.90;;;;;;;3.32;82.77;103319.34;4995865;28;96545;-36
2022/01/26 05:33:41;;;;;;;16.25;6.40;;;;;;;3.30;83.38;103310.38;4995674;28;96797;-36
2022/01/26 05:36:07;;;;;;;6.97;4.82;;;;;;;3.21;83.21;103296.91;4996604;28;99397;-36
2022/01/26 05:38:32;;;;;;;9.80;5.43;;;;;;;3.23;83.17;103287.09;4995746;28;98948;-36
2022/01/26 05:41:01;;;;;;;15.55;7.15;;;;;;;3.36;82.37;103299.72;4995732;28;96564;-36
2022/01/26 05:43:30;;;;;;;20.17;6.20;;;;;;;3.28;82.22;103288.03;4996780;28;96819;-36
2022/01/26 05:46:10;;;;;;;12.35;6.70;;;;;;;3.31;82.53;103290.75;4994627;28;100959;-36
2022/01/26 05:48:42;;;;;;;9.95;5.43;;;;;;;3.32;82.04;103288.97;4995259;28;100934;-36
2022/01/26 05:51:09;;;;;;;8.90;5.63;;;;;;;3.35;82.30;103310.41;4997060;28;96563;-36
2022/01/26 05:53:36;;;;;;;8.57;4.40;;;;;;;3.39;82.03;103315.81;4996697;28;96802;-36
2022/01/26 05:56:02;;;;;;;12.38;5.50;;;;;;;3.35;82.42;103294.34;4995194;28;100557;-36
2022/01/26 05:58:27;;;;;;;9.98;4.28;;;;;;;3.39;82.23;103294.38;4994849;28;101056;-36
2022/01/26 06:00:53;;;;;;;10.05;4.45;;;;;;;3.46;81.87;103334.63;4996573;28;96642;-36
2022/01/26 06:03:18;;;;;;;11.95;4.70;;;;;;;3.31;82.19;103309.50;4996400;28;96735;-36
2022/01/26 06:05:45;;;;;;;11.82;5.68;;;;;;;3.44;81.82;103339.97;4995976;28;99174;-36
2022/01/26 06:08:10;;;;;;;12.50;5.68;;;;;;;3.32;81.71;103334.50;4996321;28;102616;-36
2022/01/26 06:10:35;;;;;;;13.88;5.20;;;;;;;3.39;81.94;103356.00;4995407;28;109960;-36
2022/01/26 06:13:01;;;;;;;15.43;5.78;;;;;;;3.40;81.54;103363.13;4995456;28;109849;-36
2022/01/26 06:15:27;;;;;;;10.88;4.88;;;;;;;3.38;81.96;103362.25;4996298;28;98040;-36
2022/01/26 06:17:52;;;;;;;10.88;6.05;;;;;;;3.29;81.91;103347.84;4994773;28;100785;-36
2022/01/26 06:20:17;;;;;;;15.50;5.95;;;;;;;3.38;81.66;103361.34;4996292;28;96487;-36
2022/01/26 06:22:43;;;;;;;15.32;5.68;;;;;;;3.36;81.47;103357.75;4996436;28;96800;-36
2022/01/26 06:25:09;;;;;;;14.02;5.55;;;;;;;3.26;81.15;103324.63;4993946;28;120934;-36
2022/01/26 06:27:38;;;;;;;10.27;4.68;;;;;;;3.38;81.44;103339.91;4994995;28;100745;-36
2022/01/26 06:30:06;;;;;;;14.80;7.65;;;;;;;3.30;81.23;103321.09;4996342;28;96557;-36
2022/01/26 06:32:31;;;;;;;14.95;5.60;;;;;;;3.32;81.46;103329.16;4994604;28;96855;-36
2022/01/26 06:34:57;;;;;;;9.48;5.75;;;;;;;3.31;81.04;103314.88;4995553;28;97970;-36
2022/01/26 06:37:22;;;;;;;13.25;3.92;;;;;;;3.27;81.53;103313.03;4994473;28;100911;-36
2022/01/26 06:39:48;;;;;;;9.93;6.13;;;;;;;3.28;81.64;103313.94;4996352;28;96670;-36
2022/01/26 06:42:16;;;;;;;17.60;5.38;;;;;;;3.24;81.36;103302.28;4996377;28;96780;-36
2022/01/26 06:45:06;;;;;;;10.48;4.05;;;;;;;3.19;81.21;103296.91;4994455;28;100801;-36
2022/01/26 06:49:59;;;;;;;11.25;5.50;;;;;;;3.17;81.08;103293.31;4995992;28;96579;-36
2022/01/26 06:52:25;;;;;;;10.82;6.20;;;;;;;3.19;81.41;103309.38;4995234;28;96788;-36
2022/01/26 06:54:50;;;;;;;9.70;5.97;;;;;;;3.19;80.97;103318.34;4995994;28;97380;-36
2022/01/26 06:57:15;;;;;;;10.60;5.10;;;;;;;3.28;81.10;103338.03;4994827;28;121314;-36
2022/01/26 06:59:40;;;;;;;11.00;4.75;;;;;;;3.31;81.26;103349.69;4994812;28;96795;-36
2022/01/26 07:02:06;;;;;;;9.27;6.00;;;;;;;3.24;81.17;103331.75;4995372;28;96884;-35
2022/01/26 07:04:31;;;;;;;18.05;6.57;;;;;;;3.29;80.88;103338.06;4995355;28;97738;-36
2022/01/26 07:06:56;;;;;;;11.32;5.90;;;;;;;3.19;80.79;103314.72;4995495;28;97311;-36
2022/01/26 07:09:22;;;;;;;6.72;3.33;;;;;;;3.20;80.92;103305.84;4995810;28;96506;-36
2022/01/26 07:11:47;;;;;;;11.30;5.60;;;;;;;3.25;80.83;103319.28;4995410;28;98022;-36
2022/01/26 07:14:23;;;;;;;10.15;4.72;;;;;;;3.31;80.78;103333.63;4994545;28;120558;-36
2022/01/26 07:19:54;;;;;;;8.68;4.20;;;;;;;3.30;81.31;103355.91;4994832;28;96481;-36
2022/01/26 07:22:19;;;;;;;9.85;4.43;;;;;;;3.31;81.26;103357.72;4995462;28;96568;-36
2022/01/26 07:24:45;;;;;;;13.40;5.20;;;;;;;3.33;81.13;103350.56;4993672;28;97851;-36
2022/01/26 07:27:11;;;;;;;11.85;5.95;;;;;;;3.33;81.37;103355.94;4995240;28;97522;-36
2022/01/26 07:29:36;;;;;;;14.75;5.97;;;;;;;3.21;81.34;103342.44;4995185;28;96604;-36
2022/01/26 07:32:05;;;;;;;10.60;4.43;;;;;;;3.19;81.21;103337.09;4995193;28;96829;-36
2022/01/26 07:34:30;;;;;;;9.20;4.90;;;;;;;3.33;81.44;103365.75;4993586;28;101177;-36
2022/01/26 07:37:00;;;;;;;11.07;5.82;;;;;;;3.20;81.08;103354.03;4994803;28;111945;-36
2022/01/26 07:39:43;;;;;;;7.32;4.28;;;;;;;3.26;80.78;103375.50;4995150;28;96452;-36
2022/01/26 07:42:10;;;;;;;11.73;4.00;;;;;;;3.34;81.30;103395.25;4995764;28;96660;-36
2022/01/26 07:44:36;;;;;;;11.80;5.38;;;;;;;3.34;81.21;103380.97;4993381;28;101585;-36
2022/01/26 07:47:02;;;;;;;8.25;5.30;;;;;;;3.32;81.16;103374.69;4994854;28;97760;-36
2022/01/26 07:49:27;;;;;;;12.82;5.57;;;;;;;3.32;80.99;103372.91;4994539;28;96828;-36
2022/01/26 07:51:58;;;;;;;8.52;5.60;;;;;;;3.36;80.69;103373.81;4994139;28;117412;-36
2022/01/26 07:54:24;;;;;;;12.67;3.90;;;;;;;3.33;80.96;103366.66;4992706;28;120341;-36
2022/01/26 07:56:50;;;;;;;12.27;3.97;;;;;;;3.30;80.88;103361.28;4994755;28;97849;-36
2022/01/26 07:59:15;;;;;;;10.02;4.53;;;;;;;3.22;80.76;103341.56;4993816;28;116169;-36
2022/01/26 08:01:40;;;;;;;13.82;5.15;;;;;;;3.30;80.70;103352.34;4992991;28;99120;-35
2022/01/26 08:04:06;;;;;;;9.60;4.63;;;;;;;3.16;80.86;103326.31;4994046;28;101236;-36
2022/01/26 08:06:31;;;;;;;12.45;5.35;;;;;;;3.32;80.79;103354.16;4994826;28;97784;-36
2022/01/26 08:08:56;;;;;;;6.70;4.30;;;;;;;3.32;81.14;103353.25;4994032;28;115973;-36
2022/01/26 08:11:24;;;;;;;6.60;3.97;;;;;;;3.45;80.93;103379.25;4995066;28;96737;-36
2022/01/26 08:13:49;;;;;;;9.32;4.90;;;;;;;3.48;81.11;103375.72;4993993;28;97927;-36
2022/01/26 08:16:14;;;;;;;8.15;4.72;;;;;;;3.37;80.91;103352.41;4993134;28;100538;-36
2022/01/26 08:18:40;;;;;;;12.00;3.35;;;;;;;3.49;80.59;103375.72;4993665;28;113014;-36
2022/01/26 08:21:06;;;;;;;11.73;5.82;;;;;;;3.43;81.28;103356.03;4993860;28;117124;-36
2022/01/26 08:23:33;;;;;;;5.53;3.30;;;;;;;3.49;80.98;103373.06;4994345;28;97913;-36
2022/01/26 08:25:59;;;;;;;9.70;5.18;;;;;;;3.47;80.71;103366.78;4992775;28;101040;-36
2022/01/26 08:28:31;;;;;;;4.68;3.38;;;;;;;3.49;80.92;103370.38;4994681;28;96738;-36
2022/01/26 08:30:56;;;;;;;12.70;5.07;;;;;;;3.52;81.05;103366.81;4993625;28;96730;-36
2022/01/26 08:33:21;;;;;;;12.00;4.80;;;;;;;3.39;80.95;103339.94;4994073;28;97301;-36
2022/01/26 08:35:47;;;;;;;6.75;3.72;;;;;;;3.50;81.26;103357.88;4994962;28;98909;-36
2022/01/26 08:38:13;;;;;;;10.45;5.63;;;;;;;3.54;81.36;103365.94;4997893;28;96639;-36
2022/01/26 08:40:38;;;;;;;10.07;5.55;;;;;;;3.42;81.02;103348.88;4996641;28;96858;-36
2022/01/26 08:43:04;;;;;;;6.78;3.13;;;;;;;3.39;81.55;103342.59;4996228;28;100745;-36
2022/01/26 08:45:30;;;;;;;16.52;4.95;;;;;;;3.42;81.61;103344.41;4997616;28;97800;-36
2022/01/26 08:47:55;;;;;;;12.70;3.03;;;;;;;3.46;81.18;103345.34;4997985;28;96684;-36
2022/01/26 08:50:21;;;;;;;9.65;4.25;;;;;;;3.47;81.21;103344.44;4997927;28;96745;-36
2022/01/26 08:52:47;;;;;;;11.50;5.05;;;;;;;3.59;81.24;103363.31;4997394;28;104502;-36
2022/01/26 08:55:13;;;;;;;7.22;3.90;;;;;;;3.48;81.29;103343.56;4996424;28;100811;-36
2022/01/26 08:57:39;;;;;;;12.15;5.05;;;;;;;3.59;81.27;103363.31;4996109;28;99663;-36
2022/01/26 09:00:08;;;;;;;8.20;4.05;;;;;;;3.64;81.03;103372.28;4996249;28;96834;-36
2022/01/26 09:02:34;;;;;;;9.60;3.60;;;;;;;3.64;81.69;103361.56;4996103;28;99425;-36
2022/01/26 09:05:00;;;;;;;8.38;4.68;;;;;;;3.52;81.12;103348.06;4997013;28;97861;-36
2022/01/26 09:07:25;;;;;;;8.57;4.50;;;;;;;3.66;81.30;103358.91;4996141;28;96601;-36
2022/01/26 09:09:51;;;;;;;5.43;3.38;;;;;;;3.55;81.45;103346.31;4997790;28;96707;-36
2022/01/26 09:12:19;;;;;;;16.75;4.82;;;;;;;3.70;81.46;103358.94;4997072;28;99508;-36
2022/01/26 09:14:45;;;;;;;11.10;4.53;;;;;;;3.59;81.78;103333.81;4995679;28;100874;-37
2022/01/26 09:17:12;;;;;;;10.35;5.40;;;;;;;3.59;81.69;103342.75;4995811;28;96671;-36
2022/01/26 09:19:40;;;;;;;9.68;4.68;;;;;;;3.71;81.33;103355.34;4996322;28;96807;-36
2022/01/26 09:22:11;;;;;;;11.90;4.63;;;;;;;3.71;81.66;103347.31;4995624;28;100927;-36
2022/01/26 09:24:38;;;;;;;7.85;4.63;;;;;;;3.65;81.16;103331.22;4995626;28;100954;-36
2022/01/26 09:27:06;;;;;;;12.70;3.55;;;;;;;3.66;81.46;103327.63;4995314;28;96605;-36
2022/01/26 09:29:32;;;;;;;8.45;4.75;;;;;;;3.65;81.53;103331.22;4995683;28;96797;-36
2022/01/26 09:31:58;;;;;;;12.40;5.63;;;;;;;3.79;81.49;103356.31;4995390;28;101016;-36
2022/01/26 09:34:27;;;;;;;6.97;2.97;;;;;;;3.81;81.39;103365.28;4997018;28;97821;-36
2022/01/26 09:36:52;;;;;;;7.53;3.55;;;;;;;3.85;81.39;103366.19;4995885;28;96775;-36
2022/01/26 09:39:20;;;;;;;12.88;4.80;;;;;;;3.77;81.13;103346.47;4997229;28;96737;-36
2022/01/26 09:41:47;;;;;;;7.05;3.08;;;;;;;3.77;81.17;103341.13;4995390;28;100756;-36
2022/01/26 09:44:12;;;;;;;7.40;3.95;;;;;;;3.90;81.14;103352.81;4995614;28;100926;-36
2022/01/26 09:46:39;;;;;;;5.10;3.47;;;;;;;3.93;81.07;103358.19;4996211;28;96753;-36
2022/01/26 09:49:05;;;;;;;13.65;6.35;;;;;;;3.80;81.64;103333.97;4997001;28;96523;-36
2022/01/26 09:51:38;;;;;;;13.00;4.13;;;;;;;3.92;81.19;103357.31;4996131;28;98010;-36
2022/01/26 09:54:08;;;;;;;9.45;4.05;;;;;;;3.96;81.32;103368.97;4996791;28;97941;-36
2022/01/26 09:56:34;;;;;;;11.15;4.78;;;;;;;3.85;81.45;103343.84;4995358;28;97010;-36
2022/01/26 09:58:59;;;;;;;6.82;3.88;;;;;;;3.82;81.13;103337.56;4996850;28;96832;-36
2022/01/26 10:01:24;;;;;;;8.25;4.47;;;;;;;3.87;81.35;103339.41;4996465;28;97909;-36
2022/01/26 10:03:51;;;;;;;6.88;4.20;;;;;;;3.92;80.82;103327.81;4996186;28;97758;-36
2022/01/26 10:06:28;;;;;;;10.10;5.13;;;;;;;4.06;81.07;103343.09;4995265;28;96647;-36
2022/01/26 10:09:26;;;;;;;8.30;3.30;;;;;;;4.06;80.84;103335.94;4995629;28;96556;-36
2022/01/26 10:17:37;;;;;;;8.18;3.75;;;;;;;4.12;80.72;103333.28;4996395;28;96539;-36
2022/01/26 10:20:09;;;;;;;8.90;5.13;;;;;;;4.13;80.66;103352.97;4995032;28;96891;-36
2022/01/26 10:22:36;;;;;;;7.47;3.72;;;;;;;4.13;80.51;103351.19;4994860;28;101523;-36
2022/01/26 10:25:09;;;;;;;9.30;4.57;;;;;;;4.27;80.68;103375.41;4994607;28;100833;-36
2022/01/26 10:27:38;;;;;;;8.48;3.83;;;;;;;4.30;80.69;103387.94;4994869;28;96616;-36
2022/01/26 10:30:06;;;;;;;10.85;4.90;;;;;;;4.18;80.70;103364.63;4994770;28;96983;-36
2022/01/26 10:32:36;;;;;;;9.90;4.45;;;;;;;4.20;80.46;103361.06;4994437;28;100802;-36
2022/01/26 10:35:02;;;;;;;6.15;3.35;;;;;;;4.15;80.41;103348.50;4996366;28;97804;-36
2022/01/26 10:37:29;;;;;;;7.80;4.22;;;;;;;4.31;80.29;103366.47;4994742;28;96634;-36
2022/01/26 10:40:07;;;;;;;11.02;4.43;;;;;;;4.36;80.41;103367.41;4994708;28;96857;-36
2022/01/26 10:42:33;;;;;;;7.70;4.22;;;;;;;4.29;80.19;103348.56;4995042;28;99501;-36
2022/01/26 10:45:14;;;;;;;8.80;4.95;;;;;;;4.31;80.60;103363.78;4996004;28;97778;-36
2022/01/26 10:47:45;;;;;;;14.52;3.95;;;;;;;4.34;80.49;103363.81;4996160;28;96573;-36
2022/01/26 10:53:20;;;;;;;5.57;4.00;;;;;;;4.27;80.10;103329.78;4992999;28;97519;-36
2022/01/26 10:55:46;;;;;;;8.68;4.57;;;;;;;4.56;80.03;103370.16;4995826;28;97352;-36
2022/01/26 10:58:14;;;;;;;15.48;4.68;;;;;;;4.60;79.81;103358.56;4994203;28;96662;-36
2022/01/26 11:00:43;;;;;;;8.30;4.90;;;;;;;4.51;79.70;103326.31;4994831;28;96822;-36
2022/01/26 11:03:09;;;;;;;5.32;3.22;;;;;;;4.54;80.01;103326.31;4993304;28;101280;-36
2022/01/26 11:05:34;;;;;;;6.03;3.30;;;;;;;4.57;79.82;103336.16;4995334;28;97319;-36
2022/01/26 11:08:01;;;;;;;9.70;3.85;;;;;;;4.71;79.71;103344.28;4994615;28;105948;-36
2022/01/26 11:10:32;;;;;;;7.75;3.75;;;;;;;4.75;79.60;103346.97;4995853;28;96726;-36
2022/01/26 11:12:57;;;;;;;9.88;4.70;;;;;;;4.78;79.29;103346.09;4993922;28;101285;-36
2022/01/26 11:15:23;;;;;;;10.60;4.40;;;;;;;4.70;79.38;103318.34;4995441;28;97859;-36
2022/01/26 11:17:48;;;;;;;5.38;2.63;;;;;;;4.86;79.28;103330.88;4995297;28;96787;-36
2022/01/26 11:20:16;;;;;;;7.50;4.05;;;;;;;4.88;79.08;103319.25;4995265;28;96725;-36
2022/01/26 11:22:50;;;;;;;5.03;2.83;;;;;;;4.92;79.09;103333.59;4993772;28;100957;-36
2022/01/26 11:25:16;;;;;;;14.32;4.63;;;;;;;4.94;79.11;103341.66;4994169;28;101252;-36
2022/01/26 11:27:42;;;;;;;5.43;2.97;;;;;;;4.83;79.11;103312.97;4995450;28;96752;-36
2022/01/26 11:30:15;;;;;;;5.45;2.90;;;;;;;4.98;79.57;103328.25;4993952;28;96890;-36
2022/01/26 11:32:56;;;;;;;5.30;3.10;;;;;;;4.96;79.41;103326.41;4994579;28;97548;-36
2022/01/26 11:35:24;;;;;;;9.87;3.60;;;;;;;5.02;79.03;103329.13;4995173;28;97823;-36
2022/01/26 11:38:06;;;;;;;8.07;4.38;;;;;;;5.06;79.21;103329.13;4993843;28;96698;-36
2022/01/26 11:46:22;;;;;;;6.47;3.30;;;;;;;5.04;79.20;103322.88;4994922;28;97043;-36
2022/01/26 11:48:57;;;;;;;7.25;3.80;;;;;;;5.08;79.10;103313.03;4995347;28;96742;-36
2022/01/26 11:51:23;;;;;;;5.88;3.65;;;;;;;4.87;79.20;103265.56;4994167;28;96798;-36
2022/01/26 11:53:48;;;;;;;21.92;4.65;;;;;;;5.16;79.00;103310.34;4993960;28;124677;-36
2022/01/26 11:56:19;;;;;;;6.97;3.83;;;;;;;5.17;79.09;103318.38;4994224;28;117443;-36
2022/01/26 11:58:46;;;;;;;10.27;4.88;;;;;;;5.07;79.38;103296.00;4994664;28;96575;-36
2022/01/26 12:01:56;;;;;;;5.70;2.65;;;;;;;5.09;79.03;103283.47;4995081;28;96855;-36
2022/01/26 12:04:16;;;;;;;9.90;3.58;;;;;;;5.15;79.67;103293.34;4993719;28;98876;-36
2022/01/26 12:06:49;;;;;;;7.00;3.28;;;;;;;5.23;78.97;103307.66;4993174;28;100984;-36
2022/01/26 12:09:14;;;;;;;10.02;4.85;;;;;;;5.28;79.43;103315.72;4994728;28;97357;-36
2022/01/26 12:11:40;;;;;;;10.40;5.07;;;;;;;5.17;79.15;103293.31;4993273;28;96804;-36
2022/01/26 12:14:09;;;;;;;11.15;3.75;;;;;;;5.24;78.89;103300.50;4992823;28;99031;-36
2022/01/26 12:16:42;;;;;;;8.50;4.38;;;;;;;5.24;79.00;103298.72;4993528;28;98968;-36
2022/01/26 12:33:01;;;;;;;9.07;4.30;;;;;;;5.28;78.99;103299.59;4994932;28;96580;-36
2022/01/26 12:43:44;;;;;;;10.85;4.47;;;;;;;5.42;78.83;103297.81;4994718;28;96674;-36
2022/01/26 12:46:15;;;;;;;10.07;5.25;;;;;;;5.35;79.11;103290.66;4992627;28;100742;-36
2022/01/26 12:48:46;;;;;;;10.63;4.63;;;;;;;5.31;78.69;103257.53;4992551;28;100572;-36
2022/01/26 12:51:12;;;;;;;14.43;4.38;;;;;;;5.37;78.88;103271.84;4992629;28;96814;-36
2022/01/26 12:53:38;;;;;;;11.82;4.50;;;;;;;5.35;78.85;103249.44;4994245;28;96746;-36
2022/01/26 12:56:06;;;;;;;12.40;4.93;;;;;;;5.51;79.04;103284.38;4992517;28;100786;-36
2022/01/26 12:58:35;;;;;;;10.35;4.60;;;;;;;5.51;78.96;103283.47;4992421;28;101091;-36
2022/01/26 13:01:05;;;;;;;18.83;5.43;;;;;;;5.36;78.84;103260.16;4992722;28;96647;-36
2022/01/26 13:03:33;;;;;;;6.78;3.78;;;;;;;5.39;78.93;103256.63;4992305;28;96646;-36
2022/01/26 13:06:08;;;;;;;12.35;5.88;;;;;;;5.52;78.61;103296.88;4976215;28;100884;-36
2022/01/26 13:08:52;;;;;;;10.15;4.43;;;;;;;5.51;78.48;103287.06;4992605;28;100896;-36
2022/01/26 13:11:27;;;;;;;13.38;4.55;;;;;;;5.52;78.75;103278.06;4992772;28;96529;-36
2022/01/26 13:14:18;;;;;;;10.40;3.92;;;;;;;5.52;78.61;103278.06;4992612;28;97104;-36
2022/01/26 13:21:18;;;;;;;15.00;5.72;;;;;;;5.41;78.37;103242.28;4991135;28;98650;-36
2022/01/26 13:26:02;;;;;;;10.02;3.88;;;;;;;5.59;78.30;103264.63;4995319;28;96560;-36
2022/01/26 13:28:41;;;;;;;10.35;3.10;;;;;;;5.50;78.38;103244.03;4995377;28;99258;-36
2022/01/26 13:34:09;;;;;;;6.20;2.83;;;;;;;5.66;78.45;103270.00;4997333;28;96434;-36
2022/01/26 13:44:46;;;;;;;6.05;3.70;;;;;;;5.65;78.79;103251.16;4996658;28;96554;-36
2022/01/26 13:50:02;;;;;;;8.57;3.37;;;;;;;5.64;78.66;103233.25;4996296;28;98027;-36
2022/01/26 13:58:17;;;;;;;9.70;3.50;;;;;;;5.63;78.72;103236.84;4996885;28;96753;-36